Time;durP1;ratioP1;P1;durP2;ratioP2;P2;SDS_P1;SDS_P2;PMS_P1;PMS_P2;Temp;Humidity;BMP_temperature;BMP_pressure;BME280_temperature;BME280_humidity;BME280_pressure;Samples;Min_cycle;Max_cycle;Signal;HPM_P1;HPM_P2
2022/12/26 00:01:38;;;;;;;37.08;9.50;;;8.50;99.90;;;;;;5036370;28;20067;-66
2022/12/26 00:04:04;;;;;;;38.00;9.73;;;8.50;99.90;;;;;;5010601;28;20502;-67
2022/12/26 00:06:31;;;;;;;27.50;8.23;;;8.50;99.90;;;;;;5008587;28;20064;-68
2022/12/26 00:08:58;;;;;;;29.77;9.02;;;8.50;99.90;;;;;;5006308;28;20685;-67
2022/12/26 00:11:24;;;;;;;33.55;9.60;;;8.50;99.90;;;;;;5013781;28;20046;-67
2022/12/26 00:13:59;;;;;;;;;;;8.50;99.90;;;;;;5024507;28;20041;-67
2022/12/26 00:16:26;;;;;;;26.42;8.77;;;8.50;99.90;;;;;;5022238;28;19975;-67
2022/12/26 00:18:52;;;;;;;30.92;10.27;;;8.50;99.90;;;;;;5015124;28;20079;-67
2022/12/26 00:21:18;;;;;;;31.00;9.55;;;8.50;99.90;;;;;;5035885;28;20037;-67
2022/12/26 00:23:45;;;;;;;35.75;9.20;;;8.50;99.90;;;;;;5039077;28;20049;-68
2022/12/26 00:26:19;;;;;;;32.47;10.10;;;8.50;99.90;;;;;;5033589;28;20384;-67
2022/12/26 00:28:45;;;;;;;25.38;8.35;;;8.50;99.90;;;;;;5032242;28;20061;-67
2022/12/26 00:31:19;;;;;;;35.95;10.05;;;8.50;99.90;;;;;;5028403;28;20414;-67
2022/12/26 00:33:45;;;;;;;33.75;10.05;;;8.50;99.90;;;;;;5038648;28;20438;-69
2022/12/26 00:36:19;;;;;;;29.17;8.23;;;8.50;99.90;;;;;;5032130;28;20042;-67
2022/12/26 00:38:46;;;;;;;30.10;9.55;;;8.50;99.90;;;;;;5010558;28;20140;-69
2022/12/26 00:41:13;;;;;;;;;;;8.50;99.90;;;;;;5030743;28;20037;-67
2022/12/26 00:43:39;;;;;;;30.30;9.60;;;8.50;99.90;;;;;;5007580;28;19963;-67
2022/12/26 00:46:05;;;;;;;26.67;8.38;;;8.40;99.90;;;;;;5000936;28;20542;-69
2022/12/26 00:48:31;;;;;;;32.50;8.98;;;8.50;99.90;;;;;;5026177;28;20049;-67
2022/12/26 00:50:57;;;;;;;25.52;8.18;;;8.40;99.90;;;;;;5040015;28;20040;-67
2022/12/26 00:53:24;;;;;;;26.55;8.98;;;8.50;99.90;;;;;;5029098;28;20046;-69
2022/12/26 00:55:50;;;;;;;;;;;8.50;99.90;;;;;;5020733;28;20049;-69
2022/12/26 00:58:16;;;;;;;27.33;8.82;;;8.50;99.90;;;;;;5016149;28;20402;-69
2022/12/26 01:00:42;;;;;;;30.48;9.43;;;8.50;99.90;;;;;;5015342;28;20045;-69
2022/12/26 01:03:08;;;;;;;30.95;9.02;;;8.50;99.90;;;;;;5030417;28;20037;-69
2022/12/26 01:05:35;;;;;;;34.05;9.00;;;8.50;99.90;;;;;;5010708;28;20411;-69
2022/12/26 01:08:00;;;;;;;29.50;8.32;;;8.50;99.90;;;;;;5028244;28;20037;-69
2022/12/26 01:10:27;;;;;;;31.92;8.63;;;8.50;99.90;;;;;;5011763;28;20053;-69
2022/12/26 01:12:52;;;;;;;27.45;10.02;;;8.50;99.90;;;;;;5029544;28;20495;-69
2022/12/26 01:15:19;;;;;;;29.73;9.87;;;8.50;99.90;;;;;;5022220;28;20053;-69
2022/12/26 01:17:45;;;;;;;;;;;8.50;99.90;;;;;;5032491;28;20103;-69
2022/12/26 01:20:11;;;;;;;33.35;9.60;;;8.50;99.90;;;;;;5007997;28;19922;-69
2022/12/26 01:22:36;;;;;;;29.45;9.70;;;8.40;99.90;;;;;;5018484;28;20033;-69
2022/12/26 01:25:03;;;;;;;28.77;8.70;;;8.50;99.90;;;;;;5027391;28;20045;-69
2022/12/26 01:27:29;;;;;;;26.48;8.50;;;8.50;99.90;;;;;;5009502;28;20338;-70
2022/12/26 01:29:55;;;;;;;24.67;8.85;;;8.50;99.90;;;;;;5023910;28;20072;-69
2022/12/26 01:32:21;;;;;;;26.40;8.93;;;8.50;99.90;;;;;;5003010;28;20212;-70
2022/12/26 01:34:47;;;;;;;28.42;10.07;;;8.50;99.90;;;;;;5012989;28;20084;-69
2022/12/26 01:37:14;;;;;;;28.77;8.90;;;8.40;99.90;;;;;;4999656;28;20132;-69
2022/12/26 01:39:40;;;;;;;31.25;8.48;;;8.40;99.90;;;;;;5022524;28;20779;-69
2022/12/26 01:42:15;;;;;;;23.48;7.78;;;8.50;99.90;;;;;;5008107;28;20135;-69
2022/12/26 01:44:59;;;;;;;29.58;7.78;;;8.50;99.90;;;;;;5026592;28;20096;-69
2022/12/26 01:47:39;;;;;;;29.30;8.57;;;8.50;99.90;;;;;;5023641;28;20107;-69
2022/12/26 01:50:14;;;;;;;26.75;8.27;;;8.50;99.90;;;;;;5009682;28;20041;-69
2022/12/26 01:52:44;;;;;;;28.10;8.27;;;8.50;99.90;;;;;;5013217;28;20103;-69
2022/12/26 01:55:13;;;;;;;29.02;9.02;;;8.50;99.90;;;;;;4983944;28;20443;-69
2022/12/26 01:57:43;;;;;;;24.85;7.47;;;8.50;99.90;;;;;;4997618;28;20046;-69
2022/12/26 02:00:10;;;;;;;22.40;7.03;;;8.50;99.90;;;;;;5004652;28;20048;-69
2022/12/26 02:05:32;;;;;;;21.45;7.65;;;8.50;99.90;;;;;;5025786;28;20065;-69
2022/12/26 02:05:33;;;;;;;18.75;6.47;;;8.50;99.90;;;;;;5034526;28;20068;-69
2022/12/26 02:08:20;;;;;;;17.90;6.20;;;8.50;99.90;;;;;;5032468;28;20063;-69
2022/12/26 02:10:51;;;;;;;15.57;5.60;;;8.60;99.90;;;;;;5016355;28;20649;-69
2022/12/26 02:13:18;;;;;;;18.83;5.72;;;8.50;99.90;;;;;;5007274;28;20086;-69
2022/12/26 02:15:45;;;;;;;11.73;4.63;;;8.50;99.90;;;;;;5031609;28;20060;-69
2022/12/26 02:18:11;;;;;;;13.90;5.45;;;8.60;99.90;;;;;;5020433;28;20124;-69
2022/12/26 02:20:51;;;;;;;14.27;5.38;;;8.50;99.90;;;;;;5002902;28;1094625;-69
2022/12/26 02:23:55;;;;;;;13.43;5.43;;;8.50;99.90;;;;;;5012635;28;20069;-69
2022/12/26 02:26:42;;;;;;;15.45;5.80;;;8.60;99.90;;;;;;5018273;28;20091;-70
2022/12/26 02:29:47;;;;;;;12.95;6.05;;;8.60;99.90;;;;;;5010234;28;20053;-70
2022/12/26 02:32:37;;;;;;;20.65;6.35;;;8.60;99.90;;;;;;5024494;28;20075;-70
2022/12/26 02:35:14;;;;;;;16.45;6.55;;;8.60;99.90;;;;;;5004850;28;20403;-70
2022/12/26 02:38:12;;;;;;;14.60;6.13;;;8.60;99.90;;;;;;5012397;28;20041;-70
2022/12/26 02:41:03;;;;;;;21.03;7.43;;;8.60;99.90;;;;;;5028887;28;20273;-70
2022/12/26 02:43:50;;;;;;;20.77;7.97;;;8.60;99.90;;;;;;5011670;28;20042;-70
2022/12/26 02:49:25;;;;;;;26.00;8.75;;;8.70;99.90;;;;;;5028059;28;20072;-69
2022/12/26 03:13:09;;;;;;;24.40;10.40;;;8.80;99.90;;;;;;5041838;28;20045;-70
2022/12/26 03:18:33;;;;;;;27.75;11.20;;;8.80;99.90;;;;;;5014562;28;20041;-70
2022/12/26 03:20:59;;;;;;;26.45;9.63;;;8.90;99.90;;;;;;5031282;28;20043;-70
2022/12/26 03:23:26;;;;;;;;;;;8.90;99.90;;;;;;5009378;28;20045;-70
2022/12/26 03:28:41;;;;;;;23.58;9.57;;;8.80;99.90;;;;;;5023397;28;20330;-69
2022/12/26 03:31:10;;;;;;;24.83;10.05;;;8.80;99.90;;;;;;5028194;28;20045;-70
2022/12/26 03:36:40;;;;;;;24.42;9.65;;;8.90;99.90;;;;;;5026734;28;20037;-70
2022/12/26 04:19:22;;;;;;;25.73;10.20;;;8.90;99.90;;;;;;5000145;28;20510;-70
2022/12/26 04:20:32;;;;;;;21.27;8.48;;;8.80;99.90;;;;;;5027707;28;20131;-69
2022/12/26 04:45:50;;;;;;;21.55;10.38;;;8.80;99.90;;;;;;5011361;28;20033;-69
2022/12/26 04:51:00;;;;;;;25.00;10.88;;;8.70;99.90;;;;;;5004460;28;20045;-69
2022/12/26 04:53:26;;;;;;;20.23;10.00;;;8.80;99.90;;;;;;4998342;28;20101;-69
2022/12/26 04:55:51;;;;;;;22.93;10.47;;;8.70;99.90;;;;;;5000633;28;20416;-69
2022/12/26 04:58:17;;;;;;;20.27;10.03;;;8.80;99.90;;;;;;5007532;28;20041;-68
2022/12/26 05:00:43;;;;;;;23.27;10.63;;;8.80;99.90;;;;;;5016377;28;20068;-69
2022/12/26 05:11:31;;;;;;;18.63;9.17;;;8.70;99.90;;;;;;5029694;28;20076;-69
2022/12/26 05:13:58;;;;;;;22.55;10.10;;;8.70;99.90;;;;;;5033631;28;20041;-69
2022/12/26 05:30:35;;;;;;;20.48;10.15;;;8.60;99.90;;;;;;5049189;28;19938;-89
2022/12/26 05:35:45;;;;;;;23.60;10.27;;;8.70;99.90;;;;;;5052441;28;20041;-91
2022/12/26 05:38:11;;;;;;;21.90;9.63;;;8.60;99.90;;;;;;5055759;28;20509;-90
2022/12/26 05:40:44;;;;;;;19.60;9.53;;;8.70;99.90;;;;;;5034749;28;20040;-90
2022/12/26 05:43:23;;;;;;;;;;;;;;;;;;;;;
2022/12/26 05:45:52;;;;;;;20.90;9.35;;;8.70;99.90;;;;;;5070070;28;20079;-90
2022/12/26 05:48:21;;;;;;;19.10;9.17;;;8.60;99.90;;;;;;5054947;28;20037;-90
2022/12/26 05:51:00;;;;;;;21.48;9.93;;;8.70;99.90;;;;;;5050392;28;20044;-90
2022/12/26 05:53:30;;;;;;;22.48;9.52;;;8.70;99.90;;;;;;5035238;28;20044;-90
2022/12/26 05:56:11;;;;;;;19.13;9.73;;;8.70;99.90;;;;;;5034803;28;20123;-90
2022/12/26 05:58:38;;;;;;;19.20;9.43;;;8.70;99.90;;;;;;5061268;28;20040;-90
2022/12/26 06:01:15;;;;;;;21.92;10.35;;;8.70;99.90;;;;;;5031294;28;20044;-90
2022/12/26 06:04:07;;;;;;;23.20;10.02;;;8.70;99.90;;;;;;5056202;28;20045;-91
2022/12/26 06:06:33;;;;;;;18.88;9.50;;;8.70;99.90;;;;;;5034526;28;20052;-90
2022/12/26 06:08:59;;;;;;;21.83;10.47;;;8.70;99.90;;;;;;5058050;28;20040;-90
2022/12/26 06:11:26;;;;;;;19.17;10.10;;;8.70;99.90;;;;;;5053546;28;20051;-90
2022/12/26 06:13:54;;;;;;;16.92;8.98;;;8.70;99.90;;;;;;5061043;28;20066;-92
2022/12/26 06:16:27;;;;;;;15.02;7.68;;;8.80;99.90;;;;;;5045743;23;20033;-89
2022/12/26 06:18:56;;;;;;;20.55;9.95;;;8.80;99.90;;;;;;5017445;28;20060;-89
2022/12/26 06:21:25;;;;;;;18.58;8.88;;;8.80;99.90;;;;;;5035191;28;20040;-89
2022/12/26 06:23:51;;;;;;;17.02;7.97;;;8.80;99.90;;;;;;5034133;28;20029;-89
2022/12/26 06:26:25;;;;;;;16.58;8.32;;;8.90;99.90;;;;;;5024955;28;20033;-92
2022/12/26 06:28:50;;;;;;;14.80;7.45;;;8.90;99.90;;;;;;5024878;28;20044;-90
2022/12/26 06:31:29;;;;;;;14.50;8.45;;;8.90;99.90;;;;;;5001496;28;20044;-89
2022/12/26 06:34:00;;;;;;;15.90;8.55;;;8.90;99.90;;;;;;5033086;28;20863;-90
2022/12/26 06:36:27;;;;;;;18.85;8.85;;;8.90;99.90;;;;;;5017555;28;20041;-91
2022/12/26 06:38:54;;;;;;;18.05;7.60;;;8.90;99.90;;;;;;5007406;28;20044;-90
2022/12/26 06:41:38;;;;;;;16.80;8.98;;;9.00;99.90;;;;;;5008935;28;20410;-90
2022/12/26 06:44:04;;;;;;;15.02;7.97;;;8.90;99.90;;;;;;5023528;28;20042;-89
2022/12/26 06:46:40;;;;;;;15.97;8.10;;;8.90;99.90;;;;;;5025965;28;20041;-90
2022/12/26 06:49:05;;;;;;;15.30;7.45;;;8.90;99.90;;;;;;5013982;28;20370;-89
2022/12/26 06:51:43;;;;;;;15.75;7.72;;;8.80;99.90;;;;;;5011097;28;20076;-89
2022/12/26 06:54:12;;;;;;;14.63;7.25;;;8.90;99.90;;;;;;5018463;28;20037;-90
2022/12/26 06:56:41;;;;;;;14.05;7.88;;;8.90;99.90;;;;;;5017151;28;20045;-90
2022/12/26 07:02:27;;;;;;;17.75;6.95;;;8.90;99.90;;;;;;5031216;28;20552;-90
2022/12/26 07:04:56;;;;;;;10.75;5.88;;;8.90;99.90;;;;;;5000445;28;20033;-88
2022/12/26 07:07:24;;;;;;;14.70;5.68;;;8.90;99.90;;;;;;5012002;28;20111;-87
2022/12/26 07:09:55;;;;;;;9.43;5.70;;;8.90;99.90;;;;;;5011833;28;20037;-88
2022/12/26 07:12:52;;;;;;;10.23;5.25;;;8.90;99.90;;;;;;4997532;28;20046;-89
2022/12/26 07:15:18;;;;;;;9.50;4.50;;;8.90;99.90;;;;;;5008821;28;20059;-87
2022/12/26 07:17:44;;;;;;;7.82;4.57;;;8.80;99.90;;;;;;5021560;28;20495;-90
2022/12/26 07:20:11;;;;;;;9.30;4.25;;;8.80;99.90;;;;;;4995654;28;20045;-88
2022/12/26 07:22:58;;;;;;;12.50;4.72;;;8.80;99.90;;;;;;5013617;28;20068;-87
2022/12/26 07:25:28;;;;;;;9.43;4.38;;;8.80;99.90;;;;;;5013046;28;20427;-90
2022/12/26 07:27:54;;;;;;;10.70;4.70;;;8.70;99.90;;;;;;5002126;28;20038;-90
2022/12/26 07:30:30;;;;;;;7.67;4.50;;;8.60;99.90;;;;;;5022686;28;20184;-89
2022/12/26 07:32:56;;;;;;;8.48;4.20;;;8.60;99.90;;;;;;4997111;28;20477;-90
2022/12/26 07:35:27;;;;;;;9.60;4.40;;;8.60;99.90;;;;;;5019468;28;20175;-89
2022/12/26 07:38:26;;;;;;;11.20;4.43;;;8.60;99.90;;;;;;5008167;28;20128;-89
2022/12/26 07:40:58;;;;;;;8.05;4.35;;;8.60;99.90;;;;;;5014091;28;20045;-89
2022/12/26 07:43:48;;;;;;;;;;;;;;;;;;;;;
2022/12/26 07:46:14;;;;;;;7.80;3.78;;;8.60;99.90;;;;;;5019448;28;20045;-91
2022/12/26 07:48:40;;;;;;;10.60;3.90;;;8.60;99.90;;;;;;5023307;28;20090;-89
2022/12/26 07:51:05;;;;;;;10.27;4.18;;;8.60;99.90;;;;;;5019853;28;20052;-90
2022/12/26 07:53:37;;;;;;;7.33;4.13;;;8.60;99.90;;;;;;5022862;28;20499;-88
2022/12/26 07:56:13;;;;;;;14.43;3.72;;;8.60;99.90;;;;;;5028075;28;20090;-89
2022/12/26 07:58:42;;;;;;;10.20;4.05;;;8.70;99.90;;;;;;5042022;28;20085;-89
2022/12/26 08:01:24;;;;;;;;;;;;;;;;;;;;;
2022/12/26 08:03:53;;;;;;;6.07;3.47;;;8.70;99.90;;;;;;5023503;28;20029;-88
2022/12/26 08:06:24;;;;;;;7.75;3.20;;;8.70;99.90;;;;;;5018625;28;20033;-94
2022/12/26 08:09:08;;;;;;;10.77;3.17;;;8.70;99.90;;;;;;5035393;28;20045;-89
2022/12/26 08:11:43;;;;;;;6.68;3.40;;;8.70;99.90;;;;;;5010601;28;20128;-88
2022/12/26 08:14:11;;;;;;;7.95;3.22;;;8.80;99.90;;;;;;5016865;28;20574;-88
2022/12/26 08:16:40;;;;;;;5.90;2.97;;;8.80;99.90;;;;;;5008162;28;20038;-89
2022/12/26 08:19:06;;;;;;;8.18;3.28;;;8.80;99.90;;;;;;5000177;28;20037;-89
2022/12/26 08:21:54;;;;;;;6.57;3.35;;;8.80;99.90;;;;;;5012325;28;20036;-90
2022/12/26 08:24:49;;;;;;;7.85;2.95;;;8.70;99.90;;;;;;5001169;28;20501;-90
2022/12/26 08:27:15;;;;;;;7.70;2.60;;;8.70;99.90;;;;;;5011733;28;20033;-90
2022/12/26 08:29:52;;;;;;;6.05;2.78;;;8.80;99.90;;;;;;5011427;28;20083;-90
2022/12/26 08:32:18;;;;;;;7.88;2.90;;;8.80;99.90;;;;;;5016050;28;20092;-89
2022/12/26 08:34:44;;;;;;;6.07;2.87;;;8.90;99.90;;;;;;5024164;28;20049;-91
2022/12/26 08:37:23;;;;;;;;;;;;;;;;;;;;;
2022/12/26 08:39:52;;;;;;;6.00;2.92;;;8.80;99.90;;;;;;5044653;28;20053;-91
2022/12/26 08:42:20;;;;;;;13.10;3.55;;;8.90;99.90;;;;;;5016042;28;20061;-91
2022/12/26 08:44:49;;;;;;;5.65;2.80;;;8.90;99.90;;;;;;5015355;28;20128;-89
2022/12/26 08:47:15;;;;;;;6.30;3.35;;;8.90;99.90;;;;;;5035489;28;20091;-90
2022/12/26 08:49:42;;;;;;;6.53;4.13;;;8.90;99.90;;;;;;5023060;28;20426;-90
2022/12/26 08:52:08;;;;;;;6.13;3.28;;;8.90;99.90;;;;;;5018449;28;20037;-89
2022/12/26 08:54:43;;;;;;;5.15;2.92;;;8.90;99.90;;;;;;5021333;28;20037;-88
2022/12/26 08:57:14;;;;;;;6.22;3.53;;;8.90;99.90;;;;;;5036711;28;20111;-91
2022/12/26 08:59:52;;;;;;;5.82;3.17;;;9.00;99.90;;;;;;5010007;28;20045;-88
2022/12/26 09:02:27;;;;;;;5.60;3.05;;;8.90;99.90;;;;;;5013872;28;20584;-88
2022/12/26 09:04:53;;;;;;;6.10;2.97;;;9.00;99.90;;;;;;5008890;28;20060;-89
2022/12/26 09:07:59;;;;;;;7.70;3.00;;;9.00;99.90;;;;;;5017131;28;20070;-88
2022/12/26 09:10:55;;;;;;;5.13;3.50;;;9.00;99.90;;;;;;5005292;28;20488;-88
2022/12/26 09:13:35;;;;;;;5.68;2.78;;;9.00;99.90;;;;;;5020641;28;20076;-88
2022/12/26 09:16:28;;;;;;;4.97;2.90;;;9.00;99.90;;;;;;5000527;28;20044;-89
2022/12/26 09:19:17;;;;;;;7.28;2.55;;;9.00;99.90;;;;;;5023468;28;20049;-89
2022/12/26 09:24:41;;;;;;;4.97;2.50;;;8.90;99.90;;;;;;5024151;28;20040;-87
2022/12/26 09:27:12;;;;;;;8.27;2.83;;;9.00;99.90;;;;;;5001641;28;20051;-89
2022/12/26 09:29:40;;;;;;;4.72;1.85;;;8.90;99.90;;;;;;5013235;28;20052;-89
2022/12/26 09:32:18;;;;;;;8.80;1.92;;;8.80;99.90;;;;;;5005077;28;20038;-90
2022/12/26 09:34:50;;;;;;;5.90;1.30;;;8.60;99.90;;;;;;5017672;28;20072;-89
2022/12/26 09:37:22;;;;;;;7.22;1.55;;;8.50;99.90;;;;;;4998345;28;20049;-89
2022/12/26 09:39:48;;;;;;;7.47;1.77;;;8.30;99.90;;;;;;5026272;28;20112;-89
2022/12/26 09:42:17;;;;;;;6.33;1.70;;;8.20;99.90;;;;;;5003122;28;20080;-90
2022/12/26 09:45:14;;;;;;;5.90;0.85;;;8.00;99.90;;;;;;5018617;28;20059;-89
2022/12/26 09:48:42;;;;;;;11.02;1.33;;;8.00;99.90;;;;;;5011155;28;20037;-89
2022/12/26 09:51:47;;;;;;;8.63;1.25;;;7.70;99.90;;;;;;4980806;28;20039;-91
2022/12/26 09:54:42;;;;;;;10.25;1.98;;;7.80;99.90;;;;;;4975935;28;20122;-89
2022/12/26 09:57:46;;;;;;;8.70;1.83;;;7.60;99.90;;;;;;4951836;28;20105;-90
2022/12/26 10:01:14;;;;;;;10.10;1.88;;;7.60;99.90;;;;;;4931204;29;20372;-90
2022/12/26 10:04:16;;;;;;;;;;;;;;;;;;;;;
2022/12/26 10:09:21;;;;;;;7.28;1.35;;;7.50;99.90;;;;;;5047369;28;20482;-72
2022/12/26 10:12:21;;;;;;;6.43;0.98;;;7.50;99.90;;;;;;5028275;28;20449;-69
2022/12/26 10:14:55;;;;;;;8.88;1.83;;;7.60;99.90;;;;;;5045907;28;20043;-69
2022/12/26 10:17:30;;;;;;;6.88;1.67;;;7.60;99.90;;;;;;5026944;28;20049;-67
2022/12/26 10:20:21;;;;;;;7.78;1.00;;;7.60;99.90;;;;;;5010959;28;20048;-68
2022/12/26 10:23:15;;;;;;;4.95;0.95;;;7.60;99.90;;;;;;5010244;28;20049;-68
2022/12/26 10:25:54;;;;;;;7.85;1.13;;;7.60;99.90;;;;;;5027983;28;20432;-66
2022/12/26 10:28:48;;;;;;;5.18;0.80;;;7.60;99.90;;;;;;5010848;28;20408;-67
2022/12/26 10:31:37;;;;;;;3.60;0.85;;;7.60;99.90;;;;;;5006614;28;20072;-67
2022/12/26 10:34:23;;;;;;;5.63;0.63;;;7.60;99.90;;;;;;5030711;28;20135;-68
2022/12/26 10:36:50;;;;;;;4.93;0.57;;;7.50;99.90;;;;;;5002456;28;20076;-68
2022/12/26 10:39:21;;;;;;;10.48;1.13;;;7.40;99.90;;;;;;5026481;28;20203;-67
2022/12/26 10:41:51;;;;;;;7.57;0.90;;;7.40;99.90;;;;;;5005561;28;20048;-73
2022/12/26 10:44:18;;;;;;;6.90;1.27;;;7.30;99.90;;;;;;5009245;28;20050;-68
2022/12/26 10:47:02;;;;;;;7.15;1.35;;;7.30;99.90;;;;;;5027671;28;20080;-68
2022/12/26 10:49:28;;;;;;;5.22;0.80;;;7.30;99.90;;;;;;5034950;28;20057;-70
2022/12/26 10:51:57;;;;;;;5.43;0.90;;;7.30;99.90;;;;;;5010489;28;20064;-67
2022/12/26 10:54:23;;;;;;;6.03;0.73;;;7.30;99.90;;;;;;5009838;28;20302;-68
2022/12/26 10:56:51;;;;;;;3.93;0.70;;;7.30;99.90;;;;;;5008534;28;20041;-67
2022/12/26 10:59:20;;;;;;;9.27;1.08;;;7.30;99.90;;;;;;5028669;28;20045;-67
2022/12/26 11:01:47;;;;;;;5.55;0.77;;;7.20;99.90;;;;;;5012289;28;20120;-67
2022/12/26 11:04:24;;;;;;;3.58;0.88;;;7.30;99.90;;;;;;4986935;28;20107;-68
2022/12/26 11:06:52;;;;;;;10.27;0.98;;;7.30;99.90;;;;;;5032758;28;20087;-67
2022/12/26 11:09:37;;;;;;;6.82;1.05;;;7.30;99.90;;;;;;5038156;28;20044;-70
2022/12/26 11:12:04;;;;;;;8.48;0.80;;;7.30;99.90;;;;;;5031877;28;20336;-70
2022/12/26 11:14:39;;;;;;;4.10;0.77;;;7.30;99.90;;;;;;5032778;28;20112;-69
2022/12/26 11:17:12;;;;;;;7.03;0.77;;;7.30;99.90;;;;;;5012136;28;20049;-70
2022/12/26 11:19:43;;;;;;;8.88;1.17;;;7.20;99.90;;;;;;5038771;28;20047;-69
2022/12/26 11:22:20;;;;;;;13.18;0.93;;;7.10;99.90;;;;;;5057390;22;20090;-71
2022/12/26 11:25:09;;;;;;;6.45;1.20;;;7.20;99.90;;;;;;5036325;28;20064;-75
2022/12/26 11:27:37;;;;;;;2.90;1.10;;;7.20;99.90;;;;;;5041473;28;20120;-74
2022/12/26 11:30:29;;;;;;;6.13;0.80;;;7.20;99.90;;;;;;5029372;28;20047;-77
2022/12/26 11:33:21;;;;;;;2.60;1.02;;;7.20;99.90;;;;;;5045424;28;20051;-75
2022/12/26 11:36:15;;;;;;;8.50;1.10;;;7.20;99.90;;;;;;5046626;28;20083;-70
2022/12/26 11:38:52;;;;;;;7.20;1.05;;;7.20;99.90;;;;;;5036045;28;20056;-70
2022/12/26 11:41:34;;;;;;;3.42;0.75;;;7.20;99.90;;;;;;5028557;28;20056;-74
2022/12/26 11:44:12;;;;;;;9.63;2.20;;;7.20;99.90;;;;;;5047907;28;20056;-70
2022/12/26 11:46:44;;;;;;;10.80;1.75;;;7.20;99.90;;;;;;5043842;28;20052;-70
2022/12/26 11:49:24;;;;;;;7.63;1.00;;;7.20;99.90;;;;;;5042371;28;20532;-70
2022/12/26 11:51:51;;;;;;;12.05;1.70;;;7.30;99.90;;;;;;5025429;28;20112;-69
2022/12/26 11:54:16;;;;;;;;;;;7.30;99.90;;;;;;5029471;28;20045;-69
2022/12/26 11:56:42;;;;;;;7.05;1.30;;;7.30;99.90;;;;;;5032095;28;20016;-69
2022/12/26 11:59:26;;;;;;;6.60;1.07;;;7.20;99.90;;;;;;5047039;28;20134;-69
2022/12/26 12:02:25;;;;;;;6.50;1.30;;;7.20;99.90;;;;;;5043933;28;20810;-69
2022/12/26 12:04:55;;;;;;;9.88;1.30;;;7.20;99.90;;;;;;5025277;28;20095;-69
2022/12/26 12:07:31;;;;;;;9.70;1.33;;;7.30;99.90;;;;;;5039145;28;20102;-69
2022/12/26 12:10:15;;;;;;;9.30;1.27;;;7.30;99.90;;;;;;5039458;28;20103;-69
2022/12/26 12:13:13;;;;;;;7.35;0.70;;;7.40;99.90;;;;;;5028161;28;20055;-69
2022/12/26 12:15:57;;;;;;;5.43;1.67;;;7.40;99.90;;;;;;5053357;28;20036;-69
2022/12/26 12:18:45;;;;;;;11.60;1.30;;;7.40;99.90;;;;;;5034031;28;20195;-69
2022/12/26 12:21:14;;;;;;;8.43;1.20;;;7.40;99.90;;;;;;5047508;28;20045;-70
2022/12/26 12:23:50;;;;;;;4.53;1.35;;;7.40;99.90;;;;;;5034667;28;20050;-69
2022/12/26 12:26:38;;;;;;;10.95;1.52;;;7.40;99.90;;;;;;5027835;28;20124;-69
2022/12/26 12:29:07;;;;;;;;;;;7.50;99.90;;;;;;5038635;28;20079;-69
2022/12/26 12:31:36;;;;;;;8.45;1.20;;;7.60;99.90;;;;;;5020040;28;19917;-69
2022/12/26 12:34:13;;;;;;;9.73;1.30;;;7.70;99.90;;;;;;5029998;28;20049;-69
2022/12/26 12:36:48;;;;;;;11.10;0.98;;;7.70;99.90;;;;;;5024976;28;20520;-69
2022/12/26 12:39:43;;;;;;;4.05;1.15;;;7.80;99.90;;;;;;5027935;28;20059;-69
2022/12/26 12:42:26;;;;;;;6.15;1.38;;;7.80;99.90;;;;;;5041237;28;20122;-69
2022/12/26 12:45:14;;;;;;;9.43;1.52;;;7.80;99.90;;;;;;5045819;28;20111;-69
2022/12/26 12:48:10;;;;;;;5.95;1.33;;;7.90;99.90;;;;;;5044087;28;20041;-69
2022/12/26 12:50:54;;;;;;;7.82;1.20;;;7.90;99.90;;;;;;5026719;28;20155;-69
2022/12/26 12:53:19;;;;;;;4.18;1.10;;;7.90;99.90;;;;;;5027914;28;20067;-69
2022/12/26 12:55:58;;;;;;;9.87;1.77;;;7.80;99.90;;;;;;5030428;28;20044;-69
2022/12/26 12:58:31;;;;;;;10.38;1.25;;;7.80;99.90;;;;;;5031336;28;20095;-69
2022/12/26 13:01:33;;;;;;;9.10;1.33;;;7.70;99.90;;;;;;5037847;28;20045;-69
2022/12/26 13:04:07;;;;;;;11.68;1.75;;;7.60;99.90;;;;;;4974049;28;20550;-69
2022/12/26 13:06:48;;;;;;;8.80;1.08;;;7.60;99.90;;;;;;5046695;28;20037;-69
2022/12/26 13:09:38;;;;;;;13.15;1.27;;;7.60;99.90;;;;;;5027027;28;20064;-69
2022/12/26 13:12:07;;;;;;;8.50;1.05;;;7.60;99.90;;;;;;5045222;28;20048;-69
2022/12/26 13:14:42;;;;;;;9.90;1.48;;;7.60;99.90;;;;;;5040975;28;20067;-69
2022/12/26 13:17:26;;;;;;;10.45;1.42;;;7.60;99.90;;;;;;5010609;28;20503;-69
2022/12/26 13:20:16;;;;;;;5.10;0.88;;;7.60;99.90;;;;;;5020420;28;20569;-69
2022/12/26 13:25:43;;;;;;;8.65;1.42;;;7.60;99.90;;;;;;5044783;28;20459;-69
2022/12/26 13:28:17;;;;;;;6.47;1.05;;;7.50;99.90;;;;;;5039385;28;20052;-69
2022/12/26 13:30:42;;;;;;;2.33;0.90;;;7.40;99.90;;;;;;5043349;28;20049;-69
2022/12/26 13:33:13;;;;;;;7.40;0.97;;;7.40;99.90;;;;;;5027133;28;20138;-69
2022/12/26 13:36:03;;;;;;;4.97;0.98;;;7.30;99.90;;;;;;5028545;28;20457;-69
2022/12/26 13:38:56;;;;;;;8.07;1.15;;;7.30;99.90;;;;;;5027051;28;20113;-69
2022/12/26 13:44:18;;;;;;;4.85;1.50;;;7.20;99.90;;;;;;5030509;28;20056;-69
2022/12/26 13:46:46;;;;;;;3.45;1.13;;;7.30;99.90;;;;;;5026666;28;20053;-69
2022/12/26 13:49:40;;;;;;;11.10;2.85;;;7.20;99.90;;;;;;5045537;28;20099;-69
2022/12/26 13:52:18;;;;;;;8.43;1.27;;;7.30;99.90;;;;;;5045437;28;20115;-69
2022/12/26 13:54:46;;;;;;;4.47;1.20;;;7.30;99.90;;;;;;5038528;28;20079;-69
2022/12/26 13:57:12;;;;;;;5.95;1.25;;;7.20;99.90;;;;;;5032063;28;20077;-70
2022/12/26 14:00:18;;;;;;;7.27;1.57;;;7.20;99.90;;;;;;5044478;28;20152;-69
2022/12/26 14:03:25;;;;;;;6.70;1.20;;;7.10;99.90;;;;;;5007123;28;20068;-69
2022/12/26 14:06:02;;;;;;;7.45;1.27;;;7.20;99.90;;;;;;5025931;28;20128;-69
2022/12/26 14:08:45;;;;;;;7.65;1.15;;;7.10;99.90;;;;;;5040081;28;20127;-70
2022/12/26 14:11:55;;;;;;;7.15;2.13;;;7.10;99.90;;;;;;5023100;28;20078;-69
2022/12/26 14:14:49;;;;;;;9.50;1.42;;;7.10;99.90;;;;;;5036091;28;20052;-70
2022/12/26 14:17:34;;;;;;;9.70;1.90;;;7.10;99.90;;;;;;5026307;28;20161;-69
2022/12/26 14:20:18;;;;;;;7.43;1.10;;;7.00;99.90;;;;;;5022960;28;20052;-70
2022/12/26 14:23:14;;;;;;;3.25;0.70;;;7.00;99.90;;;;;;5027252;28;20045;-69
2022/12/26 14:25:55;;;;;;;9.38;1.77;;;6.90;99.90;;;;;;5026387;28;20048;-69
2022/12/26 14:28:50;;;;;;;8.43;1.13;;;6.90;99.90;;;;;;5024284;28;20049;-70
2022/12/26 14:31:43;;;;;;;14.90;1.63;;;6.90;99.90;;;;;;5031179;28;20548;-69
2022/12/26 14:34:44;;;;;;;5.43;1.10;;;6.80;99.90;;;;;;5031313;28;20041;-70
2022/12/26 14:37:13;;;;;;;5.93;1.10;;;6.80;99.90;;;;;;5029900;28;20044;-70
2022/12/26 14:40:07;;;;;;;18.52;1.25;;;6.70;99.90;;;;;;5025538;28;20041;-70
2022/12/26 14:43:10;;;;;;;10.95;1.60;;;6.70;99.90;;;;;;5043721;28;20037;-70
2022/12/26 14:45:36;;;;;;;4.38;1.30;;;6.70;99.90;;;;;;5041474;28;20455;-70
2022/12/26 14:48:14;;;;;;;11.20;1.10;;;6.70;99.90;;;;;;5028043;28;20190;-70
2022/12/26 14:50:54;;;;;;;6.00;0.88;;;6.70;99.90;;;;;;5044926;28;20041;-70
2022/12/26 14:53:23;;;;;;;8.57;1.17;;;6.60;99.90;;;;;;5018622;28;20530;-70
2022/12/26 14:55:53;;;;;;;5.65;1.17;;;6.60;99.90;;;;;;5026297;28;20049;-70
2022/12/26 14:58:45;;;;;;;10.45;1.75;;;6.50;99.90;;;;;;5025648;28;20329;-69
2022/12/26 15:01:17;;;;;;;6.18;1.08;;;6.50;99.90;;;;;;5026191;28;20284;-69
2022/12/26 15:03:55;;;;;;;6.25;1.58;;;6.50;99.90;;;;;;5015633;28;20383;-69
2022/12/26 15:06:20;;;;;;;4.47;1.15;;;6.40;99.90;;;;;;5040197;28;20506;-69
2022/12/26 15:09:35;;;;;;;10.10;1.60;;;6.40;99.90;;;;;;5025886;28;20084;-70
2022/12/26 15:12:04;;;;;;;9.57;1.38;;;6.30;99.90;;;;;;5038690;28;20075;-70
2022/12/26 15:15:03;;;;;;;6.03;1.60;;;6.20;99.90;;;;;;5029349;28;20125;-70
2022/12/26 15:18:00;;;;;;;8.15;1.38;;;6.20;99.90;;;;;;5020983;28;20037;-70
2022/12/26 15:21:03;;;;;;;7.13;1.42;;;6.20;99.90;;;;;;5044201;28;20040;-69
2022/12/26 15:24:07;;;;;;;6.90;1.60;;;6.10;99.90;;;;;;5021834;28;20059;-70
2022/12/26 15:27:10;;;;;;;4.65;1.00;;;6.00;99.90;;;;;;5025525;28;20489;-69
2022/12/26 15:30:33;;;;;;;13.23;1.95;;;6.00;99.90;;;;;;5043475;28;20037;-69
2022/12/26 15:33:13;;;;;;;16.00;2.33;;;5.90;99.90;;;;;;4909175;29;20059;-69
2022/12/26 15:35:53;;;;;;;7.00;2.20;;;5.80;99.90;;;;;;4936056;28;20433;-70
2022/12/26 15:38:39;;;;;;;10.90;2.20;;;5.80;99.90;;;;;;5000330;28;20053;-69
2022/12/26 15:41:12;;;;;;;7.78;1.38;;;5.70;99.90;;;;;;5037132;28;20044;-70
2022/12/26 15:44:48;;;;;;;10.55;1.63;;;5.70;99.90;;;;;;5042051;28;20410;-69
2022/12/26 15:47:28;;;;;;;11.50;1.38;;;5.60;99.90;;;;;;4934979;28;20039;-69
2022/12/26 15:50:17;;;;;;;7.50;1.75;;;5.60;99.90;;;;;;5030859;28;20138;-69
2022/12/26 15:52:59;;;;;;;6.45;1.58;;;5.50;99.90;;;;;;5016908;28;20556;-69
2022/12/26 15:55:30;;;;;;;7.82;1.48;;;5.50;99.90;;;;;;5033508;28;20056;-69
2022/12/26 15:58:05;;;;;;;6.75;1.45;;;5.40;99.90;;;;;;5042216;28;20399;-70
2022/12/26 16:00:33;;;;;;;6.75;1.73;;;5.40;99.90;;;;;;5023507;28;20037;-69
2022/12/26 16:03:36;;;;;;;5.18;1.17;;;5.40;99.90;;;;;;5015002;28;20075;-69
2022/12/26 16:06:11;;;;;;;8.27;1.45;;;5.40;99.90;;;;;;5040808;28;20335;-69